Time;durP1;ratioP1;P1;durP2;ratioP2;P2;SDS_P1;SDS_P2;PMS_P1;PMS_P2;Temp;Humidity;BMP_temperature;BMP_pressure;BME280_temperature;BME280_humidity;BME280_pressure;Samples;Min_cycle;Max_cycle;Signal;HPM_P1;HPM_P2
2021/11/05 12:54:32;;;;;;;1.52;0.40;;;17.80;51.50;;;;;;5018878;27;1644661;-45
2021/11/05 12:57:03;;;;;;;1.65;0.40;;;17.60;53.10;;;;;;5051920;28;20037;-59
2021/11/05 12:59:30;;;;;;;0.65;0.43;;;17.70;54.50;;;;;;5046806;28;20025;-49
2021/11/05 13:02:02;;;;;;;0.30;0.30;;;17.80;54.90;;;;;;5039909;28;20025;-51
2021/11/05 13:04:33;;;;;;;0.50;0.40;;;18.00;54.80;;;;;;5041214;28;20082;-49
2021/11/05 13:07:05;;;;;;;1.27;0.40;;;18.10;54.60;;;;;;5042386;28;20440;-51
2021/11/05 13:09:34;;;;;;;1.15;0.22;;;18.30;54.30;;;;;;5047850;28;20033;-50
2021/11/05 13:12:11;;;;;;;0.55;0.32;;;18.40;53.90;;;;;;5037129;28;20041;-47
2021/11/05 13:14:41;;;;;;;3.25;0.40;;;18.60;53.50;;;;;;5037474;28;20052;-47
2021/11/05 13:17:14;;;;;;;0.55;0.50;;;18.80;53.00;;;;;;5037298;28;20095;-49
2021/11/05 13:19:55;;;;;;;4.63;0.70;;;18.90;52.40;;;;;;5039976;28;20041;-52
2021/11/05 13:22:22;;;;;;;1.23;0.50;;;19.10;52.10;;;;;;5038569;28;20033;-48
2021/11/05 13:24:50;;;;;;;0.60;0.45;;;19.30;51.80;;;;;;5042424;28;20032;-47
2021/11/05 13:27:17;;;;;;;0.70;0.40;;;19.40;51.40;;;;;;5038384;28;20060;-46
2021/11/05 13:29:49;;;;;;;0.85;0.20;;;19.60;51.10;;;;;;5038411;28;20099;-52
2021/11/05 13:32:22;;;;;;;1.48;0.30;;;19.80;50.80;;;;;;5039706;28;20056;-50
2021/11/05 13:34:59;;;;;;;0.85;0.30;;;19.90;50.50;;;;;;5039898;28;20091;-55
2021/11/05 13:37:29;;;;;;;1.17;0.40;;;20.10;50.20;;;;;;5035717;28;20029;-56
2021/11/05 13:40:06;;;;;;;1.55;0.30;;;20.20;50.00;;;;;;5031949;28;20030;-50
2021/11/05 13:42:33;;;;;;;0.63;0.40;;;20.30;49.60;;;;;;5040644;28;20025;-55
2021/11/05 13:45:14;;;;;;;0.65;0.30;;;20.40;49.50;;;;;;5037424;28;20032;-56
2021/11/05 13:47:48;;;;;;;2.20;0.38;;;20.60;49.30;;;;;;5052859;28;20479;-54
2021/11/05 13:50:18;;;;;;;1.77;0.40;;;20.70;49.10;;;;;;5030512;28;20033;-52
2021/11/05 13:53:04;;;;;;;0.55;0.30;;;20.80;48.90;;;;;;5032563;28;20053;-52
2021/11/05 13:55:36;;;;;;;0.73;0.47;;;21.00;48.50;;;;;;5032779;28;20428;-54
2021/11/05 13:58:04;;;;;;;0.70;0.25;;;21.10;48.40;;;;;;5040419;28;20076;-55
2021/11/05 14:00:45;;;;;;;1.25;0.60;;;21.20;48.10;;;;;;5029400;28;20057;-56
2021/11/05 14:03:14;;;;;;;0.85;0.40;;;21.30;47.70;;;;;;5038837;28;20049;-57
2021/11/05 14:05:43;;;;;;;1.15;0.30;;;21.40;47.50;;;;;;5022558;28;20034;-55
2021/11/05 14:08:11;;;;;;;0.50;0.20;;;21.50;47.20;;;;;;5018295;28;20026;-52
2021/11/05 14:10:48;;;;;;;1.52;0.40;;;21.60;46.90;;;;;;5026004;28;20116;-48
2021/11/05 14:13:15;;;;;;;1.13;0.30;;;21.70;46.60;;;;;;5026502;28;21223;-49
2021/11/05 14:15:41;;;;;;;0.90;0.35;;;21.80;46.60;;;;;;5028839;28;20030;-48
2021/11/05 14:18:18;;;;;;;5.25;0.52;;;21.90;46.40;;;;;;5020022;28;20030;-46
2021/11/05 14:20:50;;;;;;;0.45;0.30;;;22.00;46.20;;;;;;5027333;28;20025;-52
2021/11/05 14:23:29;;;;;;;0.88;0.50;;;22.10;46.20;;;;;;5022554;28;20041;-47
2021/11/05 14:25:59;;;;;;;2.30;0.70;;;22.20;45.80;;;;;;5019045;28;20044;-48
2021/11/05 14:28:25;;;;;;;1.05;0.47;;;22.20;45.70;;;;;;5036147;28;20029;-50
2021/11/05 14:30:59;;;;;;;0.80;0.40;;;22.30;45.60;;;;;;5033811;28;20104;-51
2021/11/05 14:33:25;;;;;;;;;;;22.40;45.50;;;;;;5021082;28;20137;-49
2021/11/05 14:35:51;;;;;;;0.47;0.20;;;22.40;45.60;;;;;;5021558;28;20003;-52
2021/11/05 14:38:17;;;;;;;1.00;0.30;;;22.50;45.50;;;;;;5031919;28;20108;-47
2021/11/05 14:40:43;;;;;;;1.13;0.50;;;22.60;45.30;;;;;;5033881;28;20036;-49
2021/11/05 14:43:15;;;;;;;0.77;0.30;;;22.70;45.10;;;;;;5035630;28;20075;-48
2021/11/05 14:45:49;;;;;;;1.15;0.40;;;22.70;44.80;;;;;;5017135;28;20479;-46
2021/11/05 14:48:21;;;;;;;0.75;0.40;;;22.80;44.70;;;;;;5016429;28;20030;-50
2021/11/05 14:50:55;;;;;;;1.15;0.30;;;22.80;44.50;;;;;;5017549;28;20025;-47
2021/11/05 14:53:24;;;;;;;;;;;22.80;44.40;;;;;;5020556;28;20060;-47
2021/11/05 14:55:50;;;;;;;0.38;0.20;;;22.80;44.40;;;;;;5021027;28;20298;-48
2021/11/05 14:58:25;;;;;;;0.32;0.20;;;22.80;44.30;;;;;;5016261;28;20373;-48
2021/11/05 15:00:56;;;;;;;0.60;0.28;;;22.80;44.00;;;;;;5018905;28;20037;-48
2021/11/05 15:03:25;;;;;;;1.08;0.30;;;22.80;44.00;;;;;;5030541;28;20096;-50
2021/11/05 15:05:58;;;;;;;0.73;0.30;;;22.80;43.80;;;;;;5017070;28;20425;-47
2021/11/05 15:08:24;;;;;;;0.88;0.30;;;22.90;43.70;;;;;;5016102;28;20419;-48
2021/11/05 15:10:50;;;;;;;1.10;0.20;;;22.90;43.60;;;;;;5026889;28;20132;-51
2021/11/05 15:13:18;;;;;;;1.13;0.50;;;22.90;43.40;;;;;;5023980;28;20460;-49
2021/11/05 15:15:46;;;;;;;1.30;0.40;;;23.00;43.30;;;;;;5033811;28;20696;-51
2021/11/05 15:18:18;;;;;;;0.82;0.40;;;23.00;43.20;;;;;;5015463;28;20044;-47
2021/11/05 15:20:46;;;;;;;0.73;0.20;;;23.10;43.10;;;;;;5016538;28;20038;-51
2021/11/05 15:23:12;;;;;;;0.80;0.30;;;23.10;43.00;;;;;;5031289;28;20120;-48
2021/11/05 15:25:38;;;;;;;0.45;0.25;;;23.10;42.90;;;;;;5025548;28;20061;-49
2021/11/05 15:28:04;;;;;;;1.30;0.40;;;23.10;42.80;;;;;;5017548;28;20049;-50
2021/11/05 15:30:37;;;;;;;0.77;0.30;;;23.20;42.70;;;;;;5033322;28;20035;-49
2021/11/05 15:33:03;;;;;;;0.95;0.32;;;23.20;43.30;;;;;;5032137;28;20040;-51
2021/11/05 15:35:30;;;;;;;1.10;0.50;;;23.30;42.60;;;;;;5035328;28;20044;-48
2021/11/05 15:37:56;;;;;;;1.33;0.52;;;23.30;43.10;;;;;;5017184;28;20029;-47
2021/11/05 15:40:22;;;;;;;1.63;0.60;;;23.30;42.30;;;;;;5017586;28;20099;-47
2021/11/05 15:42:50;;;;;;;0.93;0.50;;;23.40;42.30;;;;;;5027919;28;20029;-49
2021/11/05 15:45:16;;;;;;;1.35;0.50;;;23.40;42.10;;;;;;5034894;28;20041;-48
2021/11/05 15:47:43;;;;;;;0.77;0.40;;;23.50;42.10;;;;;;5034190;28;20210;-48
2021/11/05 15:50:13;;;;;;;0.60;0.40;;;23.50;42.00;;;;;;5023934;28;20748;-48
2021/11/05 15:52:40;;;;;;;0.90;0.52;;;23.50;41.80;;;;;;5014089;28;20050;-47
2021/11/05 15:55:08;;;;;;;0.55;0.40;;;23.60;41.80;;;;;;5015202;28;20364;-48
2021/11/05 15:57:34;;;;;;;1.80;0.50;;;23.60;41.70;;;;;;5015919;28;20037;-50
2021/11/05 16:00:02;;;;;;;1.02;0.50;;;23.60;41.60;;;;;;5018492;28;20021;-51
2021/11/05 16:02:38;;;;;;;1.40;0.50;;;23.70;41.50;;;;;;5015556;28;20045;-47
2021/11/05 16:05:05;;;;;;;1.98;0.70;;;23.70;41.50;;;;;;5024945;28;20037;-48
2021/11/05 16:07:31;;;;;;;1.33;0.50;;;23.70;41.50;;;;;;5029147;28;20041;-47
2021/11/05 16:09:57;;;;;;;2.75;0.30;;;23.70;41.50;;;;;;5014941;28;20111;-50
2021/11/05 16:12:23;;;;;;;0.73;0.40;;;23.70;41.50;;;;;;5026233;28;20030;-47
2021/11/05 16:14:49;;;;;;;1.83;0.45;;;23.70;41.50;;;;;;5014994;28;20053;-49
2021/11/05 16:17:14;;;;;;;1.63;0.45;;;23.70;41.50;;;;;;5033604;28;20036;-49
2021/11/05 16:19:40;;;;;;;1.77;0.50;;;23.70;41.50;;;;;;5025655;28;20116;-48
2021/11/05 16:22:06;;;;;;;2.80;0.50;;;23.70;41.50;;;;;;5019853;28;20101;-52
2021/11/05 16:24:33;;;;;;;0.35;0.20;;;23.60;41.40;;;;;;5022902;28;20208;-50
2021/11/05 16:27:00;;;;;;;0.95;0.38;;;23.60;41.50;;;;;;5033875;28;20159;-56
2021/11/05 16:29:28;;;;;;;1.35;0.40;;;23.60;41.50;;;;;;5022784;28;20036;-49
2021/11/05 16:31:54;;;;;;;0.90;0.40;;;23.60;41.70;;;;;;5019131;28;20109;-48
2021/11/05 16:34:19;;;;;;;1.17;0.30;;;23.60;41.70;;;;;;5014337;28;20038;-48
2021/11/05 16:36:45;;;;;;;0.88;0.40;;;23.60;41.80;;;;;;5014458;28;20049;-48
2021/11/05 16:39:12;;;;;;;1.63;0.65;;;23.50;41.80;;;;;;5016370;28;20030;-50
2021/11/05 16:41:39;;;;;;;1.23;0.57;;;23.50;41.80;;;;;;5013363;28;20365;-48
2021/11/05 16:44:05;;;;;;;2.20;0.65;;;23.40;41.70;;;;;;5018074;28;20025;-48
2021/11/05 16:46:31;;;;;;;1.70;0.95;;;23.30;41.60;;;;;;5033244;28;20518;-53
2021/11/05 16:48:57;;;;;;;1.38;0.85;;;23.20;41.50;;;;;;5032191;28;20037;-48
2021/11/05 16:51:26;;;;;;;1.48;0.70;;;23.20;41.60;;;;;;5016182;28;20508;-48
2021/11/05 16:53:53;;;;;;;1.70;1.00;;;23.10;41.60;;;;;;5017264;28;20099;-49
2021/11/05 16:56:19;;;;;;;1.10;0.80;;;23.00;41.80;;;;;;5014261;28;20124;-48
2021/11/05 16:58:46;;;;;;;2.03;0.65;;;22.90;41.80;;;;;;5014437;28;20041;-46
2021/11/05 17:01:13;;;;;;;1.33;0.60;;;22.90;41.80;;;;;;5021152;28;20349;-50
2021/11/05 17:03:39;;;;;;;1.15;0.50;;;22.90;41.90;;;;;;5021611;28;20045;-46
2021/11/05 17:06:06;;;;;;;1.60;0.75;;;22.90;41.90;;;;;;5014660;28;20034;-47
2021/11/05 17:08:32;;;;;;;1.35;0.65;;;22.90;41.90;;;;;;5014679;28;20029;-47
2021/11/05 17:10:58;;;;;;;0.90;0.50;;;22.80;41.90;;;;;;5015579;28;20045;-48
2021/11/05 17:13:24;;;;;;;1.52;0.70;;;22.80;42.00;;;;;;5016712;28;20038;-48
2021/11/05 17:15:49;;;;;;;1.00;0.60;;;22.80;42.00;;;;;;5033940;28;20036;-48
2021/11/05 17:18:16;;;;;;;1.25;0.77;;;22.80;42.00;;;;;;5021118;28;20026;-46
2021/11/05 17:20:42;;;;;;;1.75;0.77;;;22.80;42.00;;;;;;5031437;28;20165;-47
2021/11/05 17:23:08;;;;;;;1.08;0.60;;;22.80;42.00;;;;;;5033627;28;20030;-55
2021/11/05 17:25:34;;;;;;;1.40;0.57;;;22.80;42.10;;;;;;5014873;28;20038;-51
2021/11/05 17:28:00;;;;;;;0.90;0.60;;;22.70;42.00;;;;;;5014934;28;20030;-51
2021/11/05 17:30:26;;;;;;;1.90;0.77;;;22.80;42.10;;;;;;5021558;28;20021;-47
2021/11/05 17:32:53;;;;;;;1.83;0.60;;;22.80;42.10;;;;;;5024379;28;20103;-50
2021/11/05 17:35:21;;;;;;;1.50;0.80;;;22.80;42.10;;;;;;5024284;28;20038;-47
2021/11/05 17:37:47;;;;;;;1.05;0.73;;;22.80;42.10;;;;;;5013845;28;20026;-52
2021/11/05 17:40:14;;;;;;;1.90;0.85;;;22.70;42.00;;;;;;5028763;28;20410;-52
2021/11/05 17:42:41;;;;;;;1.48;0.80;;;22.70;42.10;;;;;;5019330;28;20029;-47
2021/11/05 17:45:09;;;;;;;1.80;1.00;;;22.70;42.10;;;;;;5026684;28;20034;-53
2021/11/05 17:47:35;;;;;;;2.00;1.00;;;22.70;42.10;;;;;;5031629;28;20034;-46
2021/11/05 17:50:05;;;;;;;2.40;1.10;;;22.60;42.10;;;;;;5017434;28;20070;-46
2021/11/05 17:52:31;;;;;;;2.00;1.10;;;22.60;42.10;;;;;;5024219;28;20133;-53
2021/11/05 17:54:57;;;;;;;3.35;1.30;;;22.60;42.20;;;;;;5035202;28;20116;-48
2021/11/05 17:57:29;;;;;;;1.90;1.08;;;22.50;42.20;;;;;;5025697;28;20069;-48
2021/11/05 17:59:55;;;;;;;2.05;1.20;;;22.50;42.20;;;;;;5021813;28;20029;-54
2021/11/05 18:02:22;;;;;;;2.08;1.10;;;22.50;42.30;;;;;;5036372;28;20061;-49
2021/11/05 18:04:48;;;;;;;2.13;1.00;;;22.40;42.20;;;;;;5027195;28;20029;-50
2021/11/05 18:07:14;;;;;;;2.83;1.17;;;22.40;42.30;;;;;;5024978;28;20036;-47
2021/11/05 18:09:40;;;;;;;2.53;1.25;;;22.30;42.30;;;;;;5036982;28;20025;-49
2021/11/05 18:12:06;;;;;;;2.13;1.10;;;22.30;42.30;;;;;;5031584;28;20359;-46
2021/11/05 18:14:32;;;;;;;2.60;1.45;;;22.30;42.40;;;;;;5031338;28;20136;-48
2021/11/05 18:16:58;;;;;;;1.75;1.10;;;22.20;42.30;;;;;;5016972;28;20030;-46
2021/11/05 18:19:24;;;;;;;2.00;1.00;;;22.20;42.30;;;;;;5027989;28;20029;-48
2021/11/05 18:21:51;;;;;;;1.98;1.08;;;22.20;42.30;;;;;;5021455;28;20022;-49
2021/11/05 18:24:17;;;;;;;2.35;1.10;;;22.20;42.30;;;;;;5032751;28;20518;-48
2021/11/05 18:26:43;;;;;;;2.47;1.10;;;22.10;42.30;;;;;;5022816;28;20065;-48
2021/11/05 18:29:18;;;;;;;1.38;1.02;;;22.10;42.40;;;;;;5017695;28;20420;-50
2021/11/05 18:31:45;;;;;;;1.88;0.95;;;22.10;42.30;;;;;;5022329;28;20021;-49
2021/11/05 18:34:12;;;;;;;2.47;1.00;;;22.10;42.40;;;;;;5026700;28;20068;-52
2021/11/05 18:36:38;;;;;;;1.58;1.17;;;22.10;42.40;;;;;;5027417;28;20411;-48
2021/11/05 18:39:06;;;;;;;2.08;1.02;;;22.00;42.40;;;;;;5022047;28;20064;-52
2021/11/05 18:41:32;;;;;;;2.20;1.00;;;22.10;42.50;;;;;;5018175;28;20464;-47
2021/11/05 18:43:58;;;;;;;2.10;1.20;;;22.00;42.40;;;;;;5022610;28;20025;-49
2021/11/05 18:46:26;;;;;;;1.50;0.90;;;22.10;42.50;;;;;;5019848;28;20041;-45
2021/11/05 18:48:52;;;;;;;1.75;0.90;;;22.10;42.40;;;;;;5022623;28;20424;-47
2021/11/05 18:51:17;;;;;;;1.85;0.90;;;22.20;42.30;;;;;;5030788;28;20092;-47
2021/11/05 18:53:43;;;;;;;2.15;0.90;;;22.30;42.20;;;;;;5023108;28;20073;-47
2021/11/05 18:56:09;;;;;;;1.77;0.85;;;22.40;42.10;;;;;;5022671;28;20433;-45
2021/11/05 18:58:35;;;;;;;2.53;0.90;;;22.50;42.00;;;;;;5019620;28;20022;-47
2021/11/05 19:01:02;;;;;;;1.58;0.80;;;22.50;41.90;;;;;;5019972;28;20030;-48
2021/11/05 19:03:31;;;;;;;1.80;0.80;;;22.60;41.80;;;;;;5028632;28;20429;-47
2021/11/05 19:06:00;;;;;;;1.50;0.70;;;22.60;41.60;;;;;;5022877;28;20349;-48
2021/11/05 19:08:31;;;;;;;1.30;0.70;;;22.70;41.50;;;;;;5025572;28;20459;-49
2021/11/05 19:10:58;;;;;;;0.90;0.70;;;22.80;41.40;;;;;;5022979;28;20346;-48
2021/11/05 19:13:26;;;;;;;1.33;0.80;;;22.90;41.30;;;;;;5024403;28;20044;-48
2021/11/05 19:15:53;;;;;;;1.77;0.75;;;22.90;41.20;;;;;;5020217;28;20029;-47
2021/11/05 19:18:19;;;;;;;2.08;0.73;;;23.00;41.10;;;;;;5026001;28;20082;-49
2021/11/05 19:20:45;;;;;;;0.95;0.68;;;23.10;41.10;;;;;;5019400;28;20026;-47
2021/11/05 19:23:12;;;;;;;1.10;0.80;;;23.10;40.90;;;;;;5026798;28;20369;-52
2021/11/05 19:25:38;;;;;;;2.40;0.80;;;23.20;40.90;;;;;;5023704;28;20361;-46
2021/11/05 19:28:08;;;;;;;0.95;0.70;;;23.20;40.80;;;;;;5022084;28;20037;-47
2021/11/05 19:30:34;;;;;;;3.28;0.82;;;23.30;40.80;;;;;;5018299;28;20026;-47
2021/11/05 19:33:01;;;;;;;1.33;0.90;;;23.40;40.70;;;;;;5030723;28;20041;-48
2021/11/05 19:35:26;;;;;;;1.42;0.90;;;23.40;40.60;;;;;;5026983;28;20044;-47
2021/11/05 19:37:52;;;;;;;1.60;0.88;;;23.50;40.60;;;;;;5026556;28;20030;-51
2021/11/05 19:40:20;;;;;;;1.20;0.90;;;23.50;40.50;;;;;;5019326;28;20044;-48
2021/11/05 19:42:46;;;;;;;1.52;0.82;;;23.50;40.40;;;;;;5023905;28;20025;-47
2021/11/05 19:45:13;;;;;;;1.50;0.85;;;23.60;40.30;;;;;;5029999;28;20061;-50
2021/11/05 19:47:39;;;;;;;1.33;0.80;;;23.70;40.30;;;;;;5017675;28;20055;-47
2021/11/05 19:50:06;;;;;;;1.25;1.00;;;23.70;40.20;;;;;;5015929;28;20411;-51
2021/11/05 19:52:33;;;;;;;1.52;0.98;;;23.70;40.20;;;;;;5025063;28;20479;-48
2021/11/05 19:54:59;;;;;;;0.93;0.73;;;23.80;40.10;;;;;;5021316;28;20243;-52
2021/11/05 19:57:27;;;;;;;1.83;1.00;;;23.80;40.00;;;;;;5022601;28;20140;-47
2021/11/05 19:59:55;;;;;;;1.55;0.85;;;23.80;40.00;;;;;;5023516;28;20029;-46
2021/11/05 20:02:22;;;;;;;2.58;0.93;;;23.90;40.00;;;;;;5025660;28;20096;-48
2021/11/05 20:04:48;;;;;;;1.88;1.20;;;24.00;39.90;;;;;;5019420;28;20052;-54
2021/11/05 20:07:15;;;;;;;2.38;1.20;;;24.00;39.90;;;;;;5020553;28;20111;-48
2021/11/05 20:09:40;;;;;;;2.88;1.00;;;24.00;39.80;;;;;;5030668;28;20045;-47
2021/11/05 20:12:06;;;;;;;1.63;1.10;;;24.10;39.80;;;;;;5018239;28;20482;-46
2021/11/05 20:14:32;;;;;;;1.10;0.90;;;24.10;39.70;;;;;;5030085;28;20045;-47
2021/11/05 20:17:03;;;;;;;2.20;1.30;;;24.10;39.60;;;;;;5027796;28;20344;-47
2021/11/05 20:19:30;;;;;;;1.15;1.00;;;24.20;39.60;;;;;;5027921;28;20022;-47
2021/11/05 20:21:56;;;;;;;2.03;0.88;;;24.20;39.50;;;;;;5015163;28;20463;-47
2021/11/05 20:24:21;;;;;;;1.85;0.80;;;24.20;39.50;;;;;;5024916;28;20029;-49
2021/11/05 20:26:48;;;;;;;2.17;1.13;;;24.20;39.40;;;;;;5023203;28;20081;-46
2021/11/05 20:29:14;;;;;;;1.85;0.98;;;24.30;39.50;;;;;;5022796;28;20080;-50
2021/11/05 20:31:40;;;;;;;1.65;1.00;;;24.30;39.40;;;;;;5017674;28;20034;-48
2021/11/05 20:34:07;;;;;;;1.30;0.95;;;24.30;39.40;;;;;;5020657;28;20099;-48
2021/11/05 20:36:33;;;;;;;2.13;1.08;;;24.30;39.40;;;;;;5017745;28;20109;-49
2021/11/05 20:38:59;;;;;;;0.98;0.88;;;24.30;39.40;;;;;;5015623;28;20045;-55
2021/11/05 20:41:27;;;;;;;2.13;0.95;;;24.40;39.50;;;;;;5024103;28;20125;-46
2021/11/05 20:43:53;;;;;;;1.27;0.80;;;24.30;39.40;;;;;;5015826;28;20112;-47
2021/11/05 20:46:18;;;;;;;1.80;1.08;;;24.30;39.40;;;;;;5028017;28;20866;-50
2021/11/05 20:48:44;;;;;;;1.33;0.90;;;24.20;39.30;;;;;;5023092;28;20113;-47
2021/11/05 20:51:10;;;;;;;2.40;1.27;;;24.20;39.40;;;;;;5022136;28;20036;-47
2021/11/05 20:53:38;;;;;;;1.50;1.10;;;24.20;39.40;;;;;;5022730;28;20045;-54
2021/11/05 20:56:10;;;;;;;1.73;1.20;;;24.10;39.20;;;;;;5021798;28;20360;-51
2021/11/05 20:58:37;;;;;;;1.60;1.00;;;24.00;39.20;;;;;;5019180;28;20136;-53
2021/11/05 21:01:05;;;;;;;1.98;1.20;;;23.90;39.30;;;;;;5022223;28;20042;-54
2021/11/05 21:03:33;;;;;;;2.03;1.27;;;23.80;39.30;;;;;;5020485;28;20026;-52
2021/11/05 21:06:02;;;;;;;1.23;0.80;;;23.80;39.40;;;;;;5018700;28;20496;-52
2021/11/05 21:08:30;;;;;;;1.75;1.02;;;23.70;40.10;;;;;;5018733;28;20920;-46
2021/11/05 21:10:56;;;;;;;1.55;0.98;;;23.60;39.50;;;;;;5019177;28;20522;-49
2021/11/05 21:13:26;;;;;;;2.97;1.15;;;23.50;39.60;;;;;;5023596;28;20042;-51
2021/11/05 21:15:52;;;;;;;2.45;1.10;;;23.50;39.60;;;;;;5028934;28;20117;-50
2021/11/05 21:18:20;;;;;;;2.47;1.25;;;23.40;39.70;;;;;;5031773;28;20076;-48
2021/11/05 21:20:48;;;;;;;1.63;1.00;;;23.40;39.80;;;;;;5024378;28;20037;-55
2021/11/05 21:23:14;;;;;;;2.20;0.90;;;23.30;39.80;;;;;;5035269;28;20032;-49
2021/11/05 21:25:43;;;;;;;2.45;1.35;;;23.30;39.90;;;;;;5025641;28;20025;-57
2021/11/05 21:28:10;;;;;;;1.92;1.02;;;23.30;39.90;;;;;;5032904;28;20160;-49
2021/11/05 21:30:36;;;;;;;1.80;0.90;;;23.20;40.00;;;;;;5019164;28;20030;-48
2021/11/05 21:33:06;;;;;;;2.42;1.15;;;23.20;40.00;;;;;;5026129;28;21020;-57
2021/11/05 21:35:39;;;;;;;1.42;0.80;;;23.20;40.10;;;;;;5028172;28;20033;-52
2021/11/05 21:38:06;;;;;;;1.45;0.80;;;23.10;40.10;;;;;;5034385;28;20029;-49
2021/11/05 21:40:32;;;;;;;1.15;0.73;;;23.10;40.10;;;;;;5018425;28;20033;-47
2021/11/05 21:42:58;;;;;;;1.40;0.90;;;23.10;40.20;;;;;;5030777;28;20033;-48
2021/11/05 21:45:24;;;;;;;1.02;0.80;;;23.00;40.10;;;;;;5021073;28;20040;-49
2021/11/05 21:47:50;;;;;;;2.10;1.15;;;23.00;40.20;;;;;;5020798;28;20050;-47
2021/11/05 21:50:17;;;;;;;1.38;0.90;;;23.00;40.20;;;;;;5026963;28;20096;-46
2021/11/05 21:52:43;;;;;;;1.50;0.95;;;22.90;40.20;;;;;;5017927;28;20116;-47
2021/11/05 21:55:12;;;;;;;1.52;0.90;;;22.90;40.30;;;;;;5027291;28;20432;-51
2021/11/05 21:57:40;;;;;;;1.13;0.68;;;22.90;40.30;;;;;;5026651;28;20048;-48
2021/11/05 22:00:10;;;;;;;1.88;1.08;;;22.90;40.30;;;;;;5020471;28;20032;-48
2021/11/05 22:02:40;;;;;;;1.17;0.82;;;22.90;40.30;;;;;;5024834;28;20038;-46
2021/11/05 22:05:07;;;;;;;1.85;1.10;;;22.90;41.00;;;;;;5025238;28;20117;-52
2021/11/05 22:07:33;;;;;;;1.35;0.88;;;22.90;40.40;;;;;;5028129;28;20456;-47
2021/11/05 22:09:59;;;;;;;1.30;0.75;;;22.90;40.40;;;;;;5017729;28;20030;-50
2021/11/05 22:12:25;;;;;;;0.73;0.73;;;22.90;40.40;;;;;;5018113;28;20433;-49
2021/11/05 22:14:51;;;;;;;1.23;0.70;;;22.80;40.40;;;;;;5017620;28;20057;-49
2021/11/05 22:17:16;;;;;;;1.08;0.80;;;22.80;40.40;;;;;;5031150;28;20033;-49
2021/11/05 22:19:42;;;;;;;1.55;0.90;;;22.80;40.40;;;;;;5018249;28;20044;-48
2021/11/05 22:22:08;;;;;;;1.02;0.70;;;22.80;40.40;;;;;;5021981;28;20412;-47
2021/11/05 22:24:33;;;;;;;1.25;0.70;;;22.80;40.50;;;;;;5038025;28;20112;-50
2021/11/05 22:26:59;;;;;;;1.85;1.08;;;22.80;40.40;;;;;;5034268;28;20037;-46
2021/11/05 22:29:25;;;;;;;1.17;0.68;;;22.80;40.40;;;;;;5034038;28;20025;-47
2021/11/05 22:31:51;;;;;;;1.73;0.85;;;22.80;40.40;;;;;;5035982;28;20026;-46
2021/11/05 22:34:16;;;;;;;1.75;0.80;;;22.80;40.40;;;;;;5035337;28;20113;-48
2021/11/05 22:36:42;;;;;;;2.13;0.90;;;22.80;40.40;;;;;;5033817;28;20120;-48
2021/11/05 22:39:08;;;;;;;1.25;0.80;;;22.80;40.40;;;;;;5023801;28;20087;-49
2021/11/05 22:41:34;;;;;;;1.90;0.65;;;22.80;40.40;;;;;;5018841;28;20029;-48
2021/11/05 22:43:59;;;;;;;1.25;0.95;;;22.80;40.40;;;;;;5035495;28;20497;-47
2021/11/05 22:46:25;;;;;;;1.70;0.75;;;22.70;40.30;;;;;;5035702;28;20029;-47
2021/11/05 22:48:52;;;;;;;0.90;0.70;;;22.70;40.30;;;;;;5022342;28;20026;-48
2021/11/05 22:51:18;;;;;;;2.30;0.88;;;22.70;40.20;;;;;;5029077;28;20044;-47
2021/11/05 22:53:44;;;;;;;2.30;0.90;;;22.70;40.20;;;;;;5017489;28;20054;-49
2021/11/05 22:56:10;;;;;;;1.23;0.70;;;22.70;40.20;;;;;;5017387;28;20373;-47
2021/11/05 22:58:36;;;;;;;1.45;0.90;;;22.70;40.20;;;;;;5021103;28;20348;-48
2021/11/05 23:01:03;;;;;;;0.75;0.65;;;22.70;40.30;;;;;;5020419;28;20464;-47
2021/11/05 23:03:29;;;;;;;1.17;0.77;;;22.70;40.20;;;;;;5035970;28;20396;-48
2021/11/05 23:05:57;;;;;;;0.82;0.45;;;22.70;40.30;;;;;;5023173;28;20400;-51
2021/11/05 23:08:26;;;;;;;0.80;0.73;;;22.60;40.30;;;;;;5028492;28;20072;-47
2021/11/05 23:10:53;;;;;;;1.40;0.80;;;22.60;40.20;;;;;;5035551;28;20033;-46
2021/11/05 23:13:20;;;;;;;1.52;0.63;;;22.60;40.20;;;;;;5032481;28;20045;-48
2021/11/05 23:15:51;;;;;;;0.88;0.55;;;22.60;40.30;;;;;;5017854;28;20072;-50
2021/11/05 23:18:18;;;;;;;0.88;0.63;;;22.60;40.30;;;;;;5027613;28;20457;-48
2021/11/05 23:20:45;;;;;;;1.50;0.80;;;22.60;40.20;;;;;;5035626;28;20026;-48
2021/11/05 23:23:11;;;;;;;1.10;0.50;;;22.60;40.20;;;;;;5036156;28;20167;-48
2021/11/05 23:25:37;;;;;;;0.90;0.57;;;22.60;40.30;;;;;;5023099;28;20104;-49
2021/11/05 23:28:04;;;;;;;1.85;0.90;;;22.60;40.30;;;;;;5024812;28;20037;-46
2021/11/05 23:30:29;;;;;;;1.30;0.57;;;22.50;40.20;;;;;;5034983;28;20022;-48
2021/11/05 23:33:00;;;;;;;1.52;0.68;;;22.50;40.20;;;;;;5036760;28;20056;-48
2021/11/05 23:35:26;;;;;;;1.10;0.88;;;22.50;40.20;;;;;;5027531;28;20467;-46
2021/11/05 23:37:52;;;;;;;1.17;0.60;;;22.50;40.30;;;;;;5022169;28;20175;-49
2021/11/05 23:40:17;;;;;;;2.25;0.73;;;22.50;40.30;;;;;;5030547;28;20104;-46
2021/11/05 23:42:43;;;;;;;1.23;0.60;;;22.50;40.30;;;;;;5036150;28;20105;-46
2021/11/05 23:45:09;;;;;;;1.13;0.60;;;22.40;40.20;;;;;;5020112;28;20447;-46
2021/11/05 23:47:35;;;;;;;1.23;0.70;;;22.40;40.20;;;;;;5021089;28;20543;-46
2021/11/05 23:50:04;;;;;;;1.58;0.75;;;22.50;40.20;;;;;;5035247;28;20025;-48
2021/11/05 23:52:31;;;;;;;1.63;0.80;;;22.40;40.20;;;;;;5025040;28;20065;-49
2021/11/05 23:54:59;;;;;;;0.70;0.50;;;22.40;40.20;;;;;;5016083;28;20385;-47
2021/11/05 23:57:25;;;;;;;1.02;0.60;;;22.40;40.20;;;;;;5017059;28;20038;-47
2021/11/05 23:59:51;;;;;;;0.90;0.50;;;22.40;40.20;;;;;;5032195;28;20040;-46
